createdAt,value
2023-03-15T00:00:10.077Z,5.30
2023-03-15T00:02:37.079Z,5.30
2023-03-15T00:05:04.178Z,5.20
2023-03-15T00:07:31.225Z,5.20
2023-03-15T00:09:58.208Z,5.20
2023-03-15T00:12:24.932Z,5.20
2023-03-15T00:14:51.692Z,5.20
2023-03-15T00:17:18.281Z,5.20
2023-03-15T00:19:44.928Z,5.30
2023-03-15T00:22:11.632Z,5.30
2023-03-15T00:24:38.237Z,5.30
2023-03-15T00:27:05.923Z,5.10
2023-03-15T00:29:33.074Z,5.20
2023-03-15T00:31:59.655Z,5.10
2023-03-15T00:34:26.372Z,5.20
2023-03-15T00:36:53.629Z,5.10
2023-03-15T00:39:20.778Z,5.10
2023-03-15T00:41:47.428Z,5.10
2023-03-15T00:44:14.118Z,5.00
2023-03-15T00:46:40.826Z,4.90
2023-03-15T00:49:07.427Z,5.00
2023-03-15T00:51:34.347Z,4.90
2023-03-15T00:54:00.934Z,4.80
2023-03-15T00:56:29.965Z,4.80
2023-03-15T00:58:57.646Z,4.80
2023-03-15T01:01:27.111Z,4.80
2023-03-15T01:03:54.188Z,4.90
2023-03-15T01:06:23.568Z,5.00
2023-03-15T01:08:51.480Z,5.00
2023-03-15T01:11:22.242Z,5.00
2023-03-15T01:13:48.808Z,5.00
2023-03-15T01:16:15.701Z,5.10
2023-03-15T01:18:42.984Z,5.20
2023-03-15T01:21:11.534Z,5.30
2023-03-15T01:23:38.541Z,5.20
2023-03-15T01:26:07.514Z,5.10
2023-03-15T01:28:34.597Z,5.10
2023-03-15T01:31:01.282Z,5.10
2023-03-15T01:33:28.185Z,5.10
2023-03-15T01:36:02.795Z,5.20
2023-03-15T01:38:30.186Z,5.20
2023-03-15T01:40:56.970Z,5.20
2023-03-15T01:43:25.838Z,5.30
2023-03-15T01:46:01.693Z,5.30
2023-03-15T01:48:35.573Z,5.30
2023-03-15T01:51:13.986Z,5.30
2023-03-15T01:53:43.750Z,5.30
2023-03-15T01:56:11.222Z,5.20
2023-03-15T01:58:39.929Z,5.30
2023-03-15T02:01:08.664Z,5.20
2023-03-15T02:03:46.381Z,5.10
2023-03-15T02:06:19.533Z,5.00
2023-03-15T02:08:51.685Z,5.00
2023-03-15T02:11:21.301Z,5.00
2023-03-15T02:13:49.539Z,5.00
2023-03-15T02:16:17.944Z,5.10
2023-03-15T02:18:44.823Z,5.10
2023-03-15T02:21:42.250Z,5.10
2023-03-15T02:24:47.281Z,5.00
2023-03-15T02:27:14.396Z,5.00
2023-03-15T02:29:42.058Z,5.10
2023-03-15T02:32:08.759Z,5.00
2023-03-15T02:34:35.386Z,5.10
2023-03-15T02:37:02.181Z,5.10
2023-03-15T02:39:28.775Z,5.00
2023-03-15T02:41:58.996Z,5.00
2023-03-15T02:44:34.312Z,5.00
2023-03-15T02:47:05.919Z,4.80
2023-03-15T02:49:38.608Z,4.70
2023-03-15T02:52:05.645Z,4.60
2023-03-15T02:54:34.254Z,4.50
2023-03-15T02:57:02.192Z,4.50
2023-03-15T02:59:29.051Z,4.50
2023-03-15T03:01:55.758Z,4.50
2023-03-15T03:04:22.698Z,4.40
2023-03-15T03:06:49.346Z,4.40
2023-03-15T03:09:16.072Z,4.40
2023-03-15T03:11:42.750Z,4.40
2023-03-15T03:14:09.543Z,4.40
2023-03-15T03:16:36.231Z,4.40
2023-03-15T03:19:03.100Z,4.30
2023-03-15T03:21:29.782Z,4.40
2023-03-15T03:23:56.412Z,4.30
2023-03-15T03:26:27.744Z,4.30
2023-03-15T03:28:55.726Z,4.30
2023-03-15T03:31:25.188Z,4.30
2023-03-15T03:33:52.386Z,4.30
2023-03-15T03:36:19.673Z,4.30
2023-03-15T03:38:47.188Z,4.30
2023-03-15T03:41:15.117Z,4.40
2023-03-15T03:43:41.807Z,4.40
2023-03-15T03:46:08.745Z,4.40
2023-03-15T03:48:35.631Z,4.40
2023-03-15T03:51:02.226Z,4.40
2023-03-15T03:53:28.836Z,4.40
2023-03-15T03:55:55.672Z,4.40
2023-03-15T03:58:22.302Z,4.40
2023-03-15T04:00:49.279Z,4.30
2023-03-15T04:03:16.167Z,4.30
2023-03-15T04:05:42.736Z,4.30
2023-03-15T04:08:09.305Z,4.30
2023-03-15T04:10:35.881Z,4.20
2023-03-15T04:13:03.595Z,4.30
2023-03-15T04:15:31.344Z,4.10
2023-03-15T04:17:58.228Z,4.10
2023-03-15T04:20:27.835Z,4.10
2023-03-15T04:22:54.592Z,4.10
2023-03-15T04:25:22.205Z,4.10
2023-03-15T04:27:58.603Z,4.00
2023-03-15T04:30:29.576Z,4.00
2023-03-15T04:33:00.185Z,4.00
2023-03-15T04:35:28.613Z,3.90
2023-03-15T04:37:55.479Z,3.80
2023-03-15T04:40:24.158Z,3.90
2023-03-15T04:42:51.706Z,3.90
2023-03-15T04:45:18.592Z,3.80
2023-03-15T04:47:45.216Z,3.80
2023-03-15T04:50:13.274Z,3.80
2023-03-15T04:52:40.336Z,3.80
2023-03-15T04:55:07.148Z,3.80
2023-03-15T04:57:33.817Z,3.70
2023-03-15T05:00:00.689Z,3.70
2023-03-15T05:02:27.389Z,3.60
2023-03-15T05:04:53.939Z,3.60
2023-03-15T05:07:20.524Z,3.60
2023-03-15T05:09:47.897Z,3.50
2023-03-15T05:12:14.528Z,3.50
2023-03-15T05:14:41.250Z,3.50
2023-03-15T05:17:08.136Z,3.50
2023-03-15T05:19:34.898Z,3.50
2023-03-15T05:22:03.560Z,3.50
2023-03-15T05:24:30.533Z,3.50
2023-03-15T05:26:57.248Z,3.40
2023-03-15T05:29:24.046Z,3.30
2023-03-15T05:31:52.188Z,3.30
2023-03-15T05:34:19.356Z,3.30
2023-03-15T05:36:45.999Z,3.20
2023-03-15T05:39:16.601Z,3.20
2023-03-15T05:41:43.347Z,3.20
2023-03-15T05:44:10.166Z,3.10
2023-03-15T05:46:37.032Z,3.10
2023-03-15T05:49:04.214Z,3.10
2023-03-15T05:51:30.830Z,3.10
2023-03-15T05:53:57.409Z,3.10
2023-03-15T05:56:24.001Z,3.10
2023-03-15T05:58:50.615Z,3.10
2023-03-15T06:01:17.409Z,3.20
2023-03-15T06:03:44.141Z,3.10
2023-03-15T06:06:11.504Z,3.20
2023-03-15T06:08:38.065Z,3.10
2023-03-15T06:11:04.661Z,3.00
2023-03-15T06:13:31.473Z,3.00
2023-03-15T06:15:58.032Z,3.00
2023-03-15T06:18:24.858Z,3.00
2023-03-15T06:20:51.576Z,2.90
2023-03-15T06:23:18.229Z,2.90
2023-03-15T06:25:45.325Z,2.90
2023-03-15T06:28:11.966Z,2.90
2023-03-15T06:30:38.735Z,3.00
2023-03-15T06:33:05.426Z,3.00
2023-03-15T06:35:32.117Z,3.00
2023-03-15T06:37:58.797Z,3.10
2023-03-15T06:40:25.374Z,3.10
2023-03-15T06:42:52.193Z,3.10
2023-03-15T06:45:19.030Z,3.10
2023-03-15T06:47:45.710Z,3.10
2023-03-15T06:50:12.457Z,3.10
2023-03-15T06:52:39.182Z,3.20
2023-03-15T06:55:06.136Z,3.20
2023-03-15T06:57:33.050Z,3.30
2023-03-15T06:59:59.674Z,3.30
2023-03-15T07:02:26.809Z,3.30
2023-03-15T07:04:53.574Z,3.40
2023-03-15T07:07:20.306Z,3.40
2023-03-15T07:09:46.883Z,3.50
2023-03-15T07:12:13.766Z,3.50
2023-03-15T07:14:40.460Z,3.60
2023-03-15T07:17:07.130Z,3.60
2023-03-15T07:19:34.597Z,3.70
2023-03-15T07:22:02.496Z,3.70
2023-03-15T07:24:29.092Z,3.70
2023-03-15T07:26:56.548Z,3.80
2023-03-15T07:29:24.118Z,3.80
2023-03-15T07:31:51.244Z,3.90
2023-03-15T07:34:18.233Z,3.90
2023-03-15T07:36:44.809Z,4.00
2023-03-15T07:39:11.663Z,4.00
2023-03-15T07:41:38.290Z,4.10
2023-03-15T07:44:05.514Z,4.20
2023-03-15T07:46:32.196Z,4.20
2023-03-15T07:48:58.793Z,4.20
2023-03-15T07:51:25.392Z,4.20
2023-03-15T07:53:51.987Z,4.30
2023-03-15T07:56:19.730Z,4.30
2023-03-15T07:58:46.585Z,4.30
2023-03-15T08:01:13.143Z,4.20
2023-03-15T08:03:39.758Z,4.30
2023-03-15T08:06:06.740Z,4.30
2023-03-15T08:08:33.491Z,4.30
2023-03-15T08:11:00.630Z,4.40
2023-03-15T08:13:27.454Z,4.40
2023-03-15T08:15:54.148Z,4.60
2023-03-15T08:18:20.811Z,4.60
2023-03-15T08:20:47.516Z,4.70
2023-03-15T08:23:16.309Z,4.70
2023-03-15T08:25:44.228Z,4.80
2023-03-15T08:28:11.402Z,4.80
2023-03-15T08:30:37.985Z,4.80
2023-03-15T08:33:04.988Z,4.90
2023-03-15T08:35:32.947Z,4.90
2023-03-15T08:38:00.132Z,5.00
2023-03-15T08:40:27.105Z,5.00
2023-03-15T08:42:54.132Z,5.10
2023-03-15T08:45:21.319Z,5.10
2023-03-15T08:47:47.922Z,5.20
2023-03-15T08:50:16.342Z,5.30
2023-03-15T08:52:43.311Z,5.30
2023-03-15T08:55:14.267Z,5.30
2023-03-15T08:57:41.736Z,5.30
2023-03-15T09:00:09.447Z,5.40
2023-03-15T09:02:37.172Z,5.50
2023-03-15T09:05:07.006Z,5.50
2023-03-15T09:07:34.220Z,5.40
2023-03-15T09:10:02.900Z,5.40
2023-03-15T09:12:30.675Z,5.50
2023-03-15T09:14:57.295Z,5.50
2023-03-15T09:17:24.101Z,5.50
2023-03-15T09:19:52.398Z,5.50
2023-03-15T09:22:34.704Z,5.60
2023-03-15T09:25:05.512Z,5.70
2023-03-15T09:27:32.447Z,5.70
2023-03-15T09:29:59.595Z,5.70
2023-03-15T09:32:26.871Z,5.80
2023-03-15T09:34:53.692Z,5.80
2023-03-15T09:37:21.789Z,5.90
2023-03-15T09:39:48.728Z,5.90
2023-03-15T09:42:33.105Z,6.00
2023-03-15T09:45:09.377Z,6.10
2023-03-15T09:47:46.700Z,6.10
2023-03-15T09:50:31.478Z,6.10
2023-03-15T09:53:16.687Z,6.20
2023-03-15T09:55:45.601Z,6.20
2023-03-15T09:58:24.083Z,6.20
2023-03-15T10:01:01.272Z,6.30
2023-03-15T10:03:44.252Z,6.30
2023-03-15T10:06:13.854Z,6.30
2023-03-15T10:08:40.810Z,6.40
2023-03-15T10:11:12.257Z,6.40
2023-03-15T10:14:12.279Z,6.50
2023-03-15T10:16:46.734Z,6.50
2023-03-15T10:19:34.530Z,6.60
2023-03-15T10:22:13.150Z,6.70
2023-03-15T10:24:44.330Z,6.70
2023-03-15T10:27:33.566Z,6.80
2023-03-15T10:30:01.167Z,6.90
2023-03-15T10:32:38.021Z,6.90
2023-03-15T10:35:15.699Z,6.90
2023-03-15T10:37:43.029Z,6.80
2023-03-15T10:40:15.872Z,6.90
2023-03-15T10:42:44.893Z,7.00
2023-03-15T10:45:24.848Z,7.10
2023-03-15T10:48:00.387Z,7.20
2023-03-15T10:50:31.299Z,7.20
2023-03-15T10:53:01.314Z,7.30
2023-03-15T10:55:37.184Z,7.30
2023-03-15T10:58:21.216Z,7.40
2023-03-15T11:00:53.874Z,7.50
2023-03-15T11:03:25.634Z,7.60
2023-03-15T11:05:55.173Z,7.60
2023-03-15T11:08:40.771Z,7.70
2023-03-15T11:11:08.428Z,7.70
2023-03-15T11:13:38.180Z,7.70
2023-03-15T11:16:08.252Z,7.80
2023-03-15T11:18:54.839Z,7.70
2023-03-15T11:21:25.210Z,7.70
2023-03-15T11:23:53.703Z,7.80
2023-03-15T11:26:33.272Z,7.80
2023-03-15T11:29:25.383Z,7.80
2023-03-15T11:31:53.971Z,7.70
2023-03-15T11:34:26.280Z,7.80
2023-03-15T11:37:07.975Z,7.80
2023-03-15T11:39:58.820Z,7.80
2023-03-15T11:42:34.191Z,7.80
2023-03-15T11:45:12.825Z,7.80
2023-03-15T11:48:03.065Z,7.80
2023-03-15T11:50:30.235Z,7.90
2023-03-15T11:53:02.856Z,8.00
2023-03-15T11:55:30.081Z,8.00
2023-03-15T11:57:58.348Z,8.00
2023-03-15T12:00:34.418Z,7.90
2023-03-15T12:03:28.261Z,8.00
2023-03-15T12:06:16.897Z,7.90
2023-03-15T12:08:48.312Z,7.80
2023-03-15T12:11:35.233Z,7.80
2023-03-15T12:14:01.883Z,7.90
2023-03-15T12:16:37.891Z,8.00
2023-03-15T12:19:19.112Z,8.10
2023-03-15T12:21:57.942Z,8.00
2023-03-15T12:24:29.869Z,8.10
2023-03-15T12:27:14.926Z,8.10
2023-03-15T12:29:45.818Z,8.10
2023-03-15T12:32:15.872Z,8.00
2023-03-15T12:34:51.396Z,8.00
2023-03-15T12:37:27.461Z,8.10
2023-03-15T12:40:26.708Z,8.10
2023-03-15T12:42:57.305Z,8.20
2023-03-15T12:45:38.363Z,8.30
2023-03-15T12:48:06.567Z,8.40
2023-03-15T12:50:45.554Z,8.40
2023-03-15T12:53:27.317Z,8.50
2023-03-15T12:56:06.195Z,8.50
2023-03-15T12:58:36.598Z,8.60
2023-03-15T13:01:05.849Z,8.70
2023-03-15T13:03:35.254Z,8.60
2023-03-15T13:06:39.260Z,8.60
2023-03-15T13:09:41.989Z,8.60
2023-03-15T13:12:22.055Z,8.60
2023-03-15T13:15:21.310Z,8.60
2023-03-15T13:17:53.356Z,8.60
2023-03-15T13:20:40.801Z,8.60
2023-03-15T13:23:14.431Z,8.70
2023-03-15T13:26:12.521Z,8.70
2023-03-15T13:28:52.094Z,8.80
2023-03-15T13:31:23.936Z,8.90
2023-03-15T13:34:03.693Z,8.90
2023-03-15T13:37:02.112Z,8.90
2023-03-15T13:39:34.670Z,8.90
2023-03-15T13:42:05.138Z,8.80
2023-03-15T13:44:32.814Z,8.90
2023-03-15T13:47:00.110Z,8.90
2023-03-15T13:49:32.062Z,9.00
2023-03-15T13:51:59.225Z,9.10
2023-03-15T13:54:27.416Z,9.10
2023-03-15T13:56:59.975Z,9.00
2023-03-15T13:59:35.230Z,8.90
2023-03-15T14:02:05.913Z,8.90
2023-03-15T14:04:37.653Z,9.00
2023-03-15T14:07:19.772Z,9.10
2023-03-15T14:09:46.472Z,9.10
2023-03-15T14:12:31.582Z,9.00
2023-03-15T14:14:59.721Z,8.90
2023-03-15T14:17:30.198Z,9.00
2023-03-15T14:20:16.448Z,9.10
2023-03-15T14:22:43.101Z,9.00
2023-03-15T14:25:22.700Z,9.00
2023-03-15T14:27:49.305Z,9.10
2023-03-15T14:30:24.433Z,9.10
2023-03-15T14:32:57.823Z,9.10
2023-03-15T14:35:32.053Z,9.10
2023-03-15T14:38:24.313Z,9.20
2023-03-15T14:40:52.204Z,9.10
2023-03-15T14:43:19.232Z,9.20
2023-03-15T14:45:47.946Z,9.20
2023-03-15T14:48:28.539Z,9.20
2023-03-15T14:50:56.159Z,9.20
2023-03-15T14:53:24.806Z,9.30
2023-03-15T14:55:51.765Z,9.30
2023-03-15T14:58:21.014Z,9.40
2023-03-15T15:00:50.073Z,9.30
2023-03-15T15:03:25.618Z,9.30
2023-03-15T15:05:52.326Z,9.30
2023-03-15T15:08:22.136Z,9.40
2023-03-15T15:10:51.151Z,9.30
2023-03-15T15:13:20.505Z,9.40
2023-03-15T15:15:55.137Z,9.40
2023-03-15T15:18:31.135Z,9.30
2023-03-15T15:21:01.332Z,9.40
2023-03-15T15:23:36.141Z,9.40
2023-03-15T15:26:18.544Z,9.40
2023-03-15T15:28:45.773Z,9.40
2023-03-15T15:31:18.880Z,9.30
2023-03-15T15:33:45.722Z,9.30
2023-03-15T15:36:32.535Z,9.20
2023-03-15T15:39:05.775Z,9.30
2023-03-15T15:41:33.383Z,9.20
2023-03-15T15:44:00.583Z,9.10
2023-03-15T15:46:27.409Z,9.20
2023-03-15T15:48:54.484Z,9.20
2023-03-15T15:51:32.228Z,9.20
2023-03-15T15:54:01.296Z,9.20
2023-03-15T15:56:34.779Z,9.20
2023-03-15T15:59:04.372Z,9.20
2023-03-15T16:01:31.549Z,9.20
2023-03-15T16:04:01.823Z,9.20
2023-03-15T16:06:28.697Z,9.20
2023-03-15T16:08:56.062Z,9.10
2023-03-15T16:11:23.265Z,9.10
2023-03-15T16:13:53.023Z,9.10
2023-03-15T16:16:20.937Z,9.20
2023-03-15T16:18:48.168Z,9.20
2023-03-15T16:21:18.219Z,9.10
2023-03-15T16:23:50.438Z,9.10
2023-03-15T16:26:17.341Z,9.10
2023-03-15T16:28:48.162Z,9.10
2023-03-15T16:31:14.872Z,9.10
2023-03-15T16:33:41.638Z,9.00
2023-03-15T16:36:17.127Z,9.00
2023-03-15T16:38:44.043Z,8.90
2023-03-15T16:41:13.463Z,8.90
2023-03-15T16:43:40.183Z,8.90
2023-03-15T16:46:15.457Z,8.80
2023-03-15T16:48:42.772Z,8.80
2023-03-15T16:51:12.883Z,8.80
2023-03-15T16:53:44.397Z,8.70
2023-03-15T16:56:13.656Z,8.70
2023-03-15T16:58:42.421Z,8.70
2023-03-15T17:01:10.450Z,8.70
2023-03-15T17:03:37.076Z,8.60
2023-03-15T17:06:03.904Z,8.60
2023-03-15T17:08:30.622Z,8.60
2023-03-15T17:10:57.314Z,8.50
2023-03-15T17:13:27.837Z,8.50
2023-03-15T17:15:54.480Z,9.80
2023-03-15T17:18:22.299Z,10.40
2023-03-15T17:20:50.138Z,10.90
2023-03-15T17:23:17.320Z,10.60
2023-03-15T17:25:44.087Z,10.00
2023-03-15T17:28:11.301Z,9.50
2023-03-15T17:30:38.110Z,9.20
2023-03-15T17:33:05.263Z,9.00
2023-03-15T17:35:35.137Z,8.70
2023-03-15T17:38:04.328Z,8.50
2023-03-15T17:40:33.561Z,8.50
2023-03-15T17:43:01.873Z,8.30
2023-03-15T17:45:33.560Z,8.20
2023-03-15T17:48:00.996Z,8.20
2023-03-15T17:50:30.725Z,8.20
2023-03-15T17:53:03.218Z,8.10
2023-03-15T17:55:34.788Z,7.90
2023-03-15T17:58:22.245Z,7.70
2023-03-15T18:00:54.711Z,7.60
2023-03-15T18:03:24.449Z,7.40
2023-03-15T18:05:53.537Z,7.20
2023-03-15T18:08:21.301Z,7.10
2023-03-15T18:10:51.293Z,7.10
2023-03-15T18:13:23.495Z,7.10
2023-03-15T18:15:51.656Z,7.00
2023-03-15T18:18:18.890Z,7.00
2023-03-15T18:20:47.730Z,6.80
2023-03-15T18:23:16.093Z,6.70
2023-03-15T18:25:45.019Z,6.70
2023-03-15T18:28:12.178Z,6.70
2023-03-15T18:30:39.354Z,6.70
2023-03-15T18:33:06.644Z,6.70
2023-03-15T18:35:35.906Z,6.70
2023-03-15T18:38:04.439Z,6.60
2023-03-15T18:40:34.096Z,6.60
2023-03-15T18:43:01.453Z,6.60
2023-03-15T18:45:36.323Z,6.50
2023-03-15T18:48:04.368Z,6.40
2023-03-15T18:50:31.803Z,6.30
2023-03-15T18:52:58.512Z,6.30
2023-03-15T18:55:25.912Z,6.30
2023-03-15T18:57:54.803Z,6.30
2023-03-15T19:00:27.313Z,6.20
2023-03-15T19:02:56.476Z,6.20
2023-03-15T19:05:23.481Z,6.20
2023-03-15T19:07:52.100Z,6.20
2023-03-15T19:10:20.233Z,6.20
2023-03-15T19:12:48.296Z,6.10
2023-03-15T19:15:17.640Z,6.10
2023-03-15T19:17:45.769Z,6.00
2023-03-15T19:20:14.786Z,6.00
2023-03-15T19:22:42.067Z,6.00
2023-03-15T19:25:11.759Z,5.90
2023-03-15T19:27:38.594Z,6.00
2023-03-15T19:30:08.548Z,5.90
2023-03-15T19:32:35.923Z,5.90
2023-03-15T19:35:03.018Z,5.80
2023-03-15T19:37:29.970Z,5.70
2023-03-15T19:39:56.697Z,5.60
2023-03-15T19:42:24.206Z,5.50
2023-03-15T19:44:50.808Z,5.40
2023-03-15T19:47:19.334Z,5.40
2023-03-15T19:49:46.468Z,5.40
2023-03-15T19:52:16.071Z,5.30
2023-03-15T19:54:42.801Z,5.30
2023-03-15T19:57:11.208Z,5.30
2023-03-15T19:59:41.389Z,5.30
2023-03-15T20:02:10.461Z,5.30
2023-03-15T20:04:37.709Z,5.30
2023-03-15T20:07:04.783Z,5.20
2023-03-15T20:09:31.566Z,5.20
2023-03-15T20:11:58.126Z,5.20
2023-03-15T20:14:24.992Z,5.10
2023-03-15T20:16:53.039Z,5.10
2023-03-15T20:19:19.648Z,5.00
2023-03-15T20:21:46.254Z,5.00
2023-03-15T20:24:12.897Z,5.00
2023-03-15T20:26:39.521Z,5.00
2023-03-15T20:29:06.264Z,4.90
2023-03-15T20:31:33.637Z,4.90
2023-03-15T20:34:00.481Z,4.80
2023-03-15T20:36:27.148Z,4.80
2023-03-15T20:38:53.783Z,4.80
2023-03-15T20:41:20.882Z,4.70
2023-03-15T20:43:47.596Z,4.60
2023-03-15T20:46:16.644Z,4.60
2023-03-15T20:48:43.337Z,4.60
2023-03-15T20:51:10.145Z,4.50
2023-03-15T20:53:37.329Z,4.50
2023-03-15T20:56:05.091Z,4.40
2023-03-15T20:58:32.015Z,4.40
2023-03-15T21:01:06.979Z,4.40
2023-03-15T21:03:34.438Z,4.40
2023-03-15T21:06:05.925Z,4.40
2023-03-15T21:08:33.427Z,4.40
2023-03-15T21:11:00.660Z,4.40
2023-03-15T21:13:27.566Z,4.40
2023-03-15T21:15:54.529Z,4.40
2023-03-15T21:18:23.397Z,4.50
2023-03-15T21:20:58.416Z,4.40
2023-03-15T21:23:27.762Z,4.40
2023-03-15T21:25:55.625Z,4.30
2023-03-15T21:28:23.417Z,4.30
2023-03-15T21:30:51.640Z,4.30
2023-03-15T21:33:19.044Z,4.20
2023-03-15T21:35:58.971Z,4.20
2023-03-15T21:38:31.163Z,4.20
2023-03-15T21:40:59.375Z,4.20
2023-03-15T21:43:31.457Z,4.20
2023-03-15T21:46:10.697Z,4.20
2023-03-15T21:48:37.837Z,4.30
2023-03-15T21:51:05.324Z,4.20
2023-03-15T21:53:34.030Z,4.10
2023-03-15T21:56:01.969Z,4.10
2023-03-15T21:58:29.294Z,4.00
2023-03-15T22:01:05.164Z,3.90
2023-03-15T22:03:32.894Z,3.90
2023-03-15T22:05:59.536Z,4.00
2023-03-15T22:08:27.127Z,4.00
2023-03-15T22:10:54.968Z,3.90
2023-03-15T22:13:22.278Z,3.80
2023-03-15T22:15:49.029Z,3.80
2023-03-15T22:18:15.673Z,3.80
2023-03-15T22:20:42.327Z,3.80
2023-03-15T22:23:09.146Z,3.70
2023-03-15T22:25:38.871Z,3.70
2023-03-15T22:28:06.248Z,3.70
2023-03-15T22:30:33.763Z,3.70
2023-03-15T22:33:00.684Z,3.70
2023-03-15T22:35:27.509Z,3.60
2023-03-15T22:37:56.739Z,3.60
2023-03-15T22:40:25.500Z,3.60
2023-03-15T22:42:53.125Z,3.50
2023-03-15T22:45:21.102Z,3.60
2023-03-15T22:47:50.474Z,3.60
2023-03-15T22:50:17.274Z,3.50
2023-03-15T22:52:43.989Z,3.40
2023-03-15T22:55:13.633Z,3.40
2023-03-15T22:57:40.286Z,3.40
2023-03-15T23:00:13.489Z,3.40
2023-03-15T23:02:41.748Z,3.40
2023-03-15T23:05:09.025Z,3.40
2023-03-15T23:07:35.691Z,3.40
2023-03-15T23:10:02.764Z,3.40
2023-03-15T23:12:35.873Z,3.40
2023-03-15T23:15:04.496Z,3.30
2023-03-15T23:17:31.580Z,3.30
2023-03-15T23:19:58.316Z,3.30
2023-03-15T23:22:24.996Z,3.30
2023-03-15T23:24:51.668Z,3.30
2023-03-15T23:27:18.379Z,3.30
2023-03-15T23:29:54.031Z,3.30
2023-03-15T23:32:21.462Z,3.30
2023-03-15T23:34:48.120Z,3.30
2023-03-15T23:37:17.670Z,3.20
2023-03-15T23:39:44.481Z,3.10
2023-03-15T23:42:12.006Z,3.00
2023-03-15T23:44:38.708Z,3.00
2023-03-15T23:47:06.361Z,3.00
2023-03-15T23:49:33.568Z,3.00
2023-03-15T23:52:05.450Z,3.00
2023-03-15T23:54:39.280Z,3.00
2023-03-15T23:57:07.429Z,3.00
2023-03-15T23:59:36.516Z,3.00
